sensor_id;sensor_type;location;lat;lon;timestamp;pressure;altitude;pressure_sealevel;temperature
65272;BMP280;51868;48.812;8.198;2022-10-30T05:00:09;102527.13;;;13.38
65272;BMP280;51868;48.812;8.198;2022-10-30T05:03:04;102527.22;;;13.38
65272;BMP280;51868;48.812;8.198;2022-10-30T05:05:38;102523.81;;;13.41
65272;BMP280;51868;48.812;8.198;2022-10-30T05:08:07;102523.75;;;13.42
65272;BMP280;51868;48.812;8.198;2022-10-30T05:10:37;102509.31;;;13.43
65272;BMP280;51868;48.812;8.198;2022-10-30T05:13:05;102515.00;;;13.43
65272;BMP280;51868;48.812;8.198;2022-10-30T05:15:38;102515.06;;;13.43
65272;BMP280;51868;48.812;8.198;2022-10-30T05:18:06;102526.97;;;13.39
65272;BMP280;51868;48.812;8.198;2022-10-30T05:20:37;102527.91;;;13.33
65272;BMP280;51868;48.812;8.198;2022-10-30T05:23:05;102536.91;;;13.30
65272;BMP280;51868;48.812;8.198;2022-10-30T05:25:37;102537.22;;;13.28
65272;BMP280;51868;48.812;8.198;2022-10-30T05:28:06;102537.53;;;13.26
65272;BMP280;51868;48.812;8.198;2022-10-30T05:30:34;102543.19;;;13.26
65272;BMP280;51868;48.812;8.198;2022-10-30T05:33:05;102543.81;;;13.22
65272;BMP280;51868;48.812;8.198;2022-10-30T05:35:34;102552.66;;;13.20
65272;BMP280;51868;48.812;8.198;2022-10-30T05:38:04;102561.78;;;13.16
65272;BMP280;51868;48.812;8.198;2022-10-30T05:40:33;102570.78;;;13.13
65272;BMP280;51868;48.812;8.198;2022-10-30T05:43:03;102571.09;;;13.11
65272;BMP280;51868;48.812;8.198;2022-10-30T05:45:31;102582.53;;;13.10
65272;BMP280;51868;48.812;8.198;2022-10-30T05:48:05;102588.19;;;13.10
65272;BMP280;51868;48.812;8.198;2022-10-30T05:50:33;102585.50;;;13.09
65272;BMP280;51868;48.812;8.198;2022-10-30T06:55:11;102635.56;;;12.97
65272;BMP280;51868;48.812;8.198;2022-10-30T06:57:39;102641.25;;;12.97
65272;BMP280;51868;48.812;8.198;2022-10-30T07:00:13;102632.41;;;12.99
65272;BMP280;51868;48.812;8.198;2022-10-30T07:02:42;102623.38;;;13.03
65272;BMP280;51868;48.812;8.198;2022-10-30T07:05:13;102620.16;;;13.06
65272;BMP280;51868;48.812;8.198;2022-10-30T07:07:44;102610.69;;;13.12
65272;BMP280;51868;48.812;8.198;2022-10-30T07:10:23;102595.34;;;13.19
65272;BMP280;51868;48.812;8.198;2022-10-30T07:12:53;102591.63;;;13.25
65272;BMP280;51868;48.812;8.198;2022-10-30T07:15:26;102579.66;;;13.29
65272;BMP280;51868;48.812;8.198;2022-10-30T07:17:57;102573.28;;;13.34
65272;BMP280;51868;48.812;8.198;2022-10-30T07:20:31;102564.06;;;13.38
65272;BMP280;51868;48.812;8.198;2022-10-30T07:23:25;102554.84;;;13.43
65272;BMP280;51868;48.812;8.198;2022-10-30T07:26:09;102551.28;;;13.47
65272;BMP280;51868;48.812;8.198;2022-10-30T07:28:45;102533.16;;;13.55
65272;BMP280;51868;48.812;8.198;2022-10-30T07:31:18;102526.16;;;13.63
65272;BMP280;51868;48.812;8.198;2022-10-30T07:34:06;102505.09;;;13.71
65272;BMP280;51868;48.812;8.198;2022-10-30T07:36:35;102498.31;;;13.78
65272;BMP280;51868;48.812;8.198;2022-10-30T07:39:10;102488.84;;;13.84
65272;BMP280;51868;48.812;8.198;2022-10-30T07:42:11;102478.97;;;13.93
65272;BMP280;51868;48.812;8.198;2022-10-30T07:44:43;102463.19;;;14.03
65272;BMP280;51868;48.812;8.198;2022-10-30T07:47:11;102447.19;;;14.15
65272;BMP280;51868;48.812;8.198;2022-10-30T07:49:44;102421.75;;;14.32
65272;BMP280;51868;48.812;8.198;2022-10-30T07:52:13;102389.97;;;14.54
65272;BMP280;51868;48.812;8.198;2022-10-30T07:55:08;102319.16;;;14.88
65272;BMP280;51868;48.812;8.198;2022-10-30T07:58:04;102282.63;;;15.22
65272;BMP280;51868;48.812;8.198;2022-10-30T08:00:56;102223.47;;;15.54
65272;BMP280;51868;48.812;8.198;2022-10-30T08:03:54;102178.59;;;15.85
65272;BMP280;51868;48.812;8.198;2022-10-30T08:06:24;102144.69;;;16.02
65272;BMP280;51868;48.812;8.198;2022-10-30T08:09:17;102143.84;;;16.07
65272;BMP280;51868;48.812;8.198;2022-10-30T08:12:11;102144.09;;;16.05
65272;BMP280;51868;48.812;8.198;2022-10-30T08:15:10;102156.19;;;16.01
65272;BMP280;51868;48.812;8.198;2022-10-30T08:18:26;102159.03;;;16.01
65272;BMP280;51868;48.812;8.198;2022-10-30T08:24:51;102168.06;;;15.98
65272;BMP280;51868;48.812;8.198;2022-10-30T08:32:04;102143.34;;;16.10
65272;BMP280;51868;48.812;8.198;2022-10-30T09:23:31;100582.31;;;25.88
65272;BMP280;51868;48.812;8.198;2022-10-30T09:26:03;100685.84;;;25.26
65272;BMP280;51868;48.812;8.198;2022-10-30T09:28:31;100837.13;;;24.37
65272;BMP280;51868;48.812;8.198;2022-10-30T09:31:00;100976.22;;;23.51
65272;BMP280;51868;48.812;8.198;2022-10-30T09:33:56;101034.28;;;23.16
65272;BMP280;51868;48.812;8.198;2022-10-30T09:44:42;101086.41;;;22.81
65272;BMP280;51868;48.812;8.198;2022-10-30T09:52:31;101112.66;;;22.63
65272;BMP280;51868;48.812;8.198;2022-10-30T11:02:57;100866.41;;;24.04
65272;BMP280;51868;48.812;8.198;2022-10-30T11:05:32;100867.00;;;24.01
65272;BMP280;51868;48.812;8.198;2022-10-30T11:08:12;100874.22;;;23.93
65272;BMP280;51868;48.812;8.198;2022-10-30T11:10:58;100871.25;;;23.94
65272;BMP280;51868;48.812;8.198;2022-10-30T11:13:37;100898.63;;;23.85
65272;BMP280;51868;48.812;8.198;2022-10-30T11:16:20;100897.78;;;23.75
65272;BMP280;51868;48.812;8.198;2022-10-30T12:10:29;100826.88;;;24.17
65272;BMP280;51868;48.812;8.198;2022-10-30T12:13:03;100808.72;;;24.23
65272;BMP280;51868;48.812;8.198;2022-10-30T12:16:06;100789.06;;;24.36
65272;BMP280;51868;48.812;8.198;2022-10-30T12:19:01;100741.28;;;24.62
65272;BMP280;51868;48.812;8.198;2022-10-30T12:22:03;100692.66;;;24.92
65272;BMP280;51868;48.812;8.198;2022-10-30T12:24:41;100648.06;;;25.16
65272;BMP280;51868;48.812;8.198;2022-10-30T12:27:17;100609.66;;;25.38
65272;BMP280;51868;48.812;8.198;2022-10-30T12:30:01;100577.09;;;25.58
65272;BMP280;51868;48.812;8.198;2022-10-30T12:36:49;100511.97;;;25.99
65272;BMP280;51868;48.812;8.198;2022-10-30T12:39:40;100499.56;;;26.04
65272;BMP280;51868;48.812;8.198;2022-10-30T12:42:18;100492.22;;;26.12
65272;BMP280;51868;48.812;8.198;2022-10-30T12:45:06;100440.03;;;26.45
65272;BMP280;51868;48.812;8.198;2022-10-30T12:47:46;100285.19;;;27.33
65272;BMP280;51868;48.812;8.198;2022-10-30T12:50:22;100145.00;;;28.18
65272;BMP280;51868;48.812;8.198;2022-10-30T12:52:58;100003.50;;;29.08
65272;BMP280;51868;48.812;8.198;2022-10-30T12:55:42;99898.25;;;29.73
65272;BMP280;51868;48.812;8.198;2022-10-30T12:58:32;99858.75;;;29.98
65272;BMP280;51868;48.812;8.198;2022-10-30T13:01:32;99838.91;;;30.10
65272;BMP280;51868;48.812;8.198;2022-10-30T13:04:07;99806.78;;;30.27
65272;BMP280;51868;48.812;8.198;2022-10-30T13:06:53;99777.13;;;30.46
65272;BMP280;51868;48.812;8.198;2022-10-30T13:09:29;99820.06;;;30.19
65272;BMP280;51868;48.812;8.198;2022-10-30T13:12:05;99873.50;;;29.83
65272;BMP280;51868;48.812;8.198;2022-10-30T13:14:45;99889.72;;;29.73
65272;BMP280;51868;48.812;8.198;2022-10-30T13:17:19;99900.38;;;29.64
65272;BMP280;51868;48.812;8.198;2022-10-30T13:19:51;99876.78;;;29.80
65272;BMP280;51868;48.812;8.198;2022-10-30T13:22:24;99879.97;;;29.79
65272;BMP280;51868;48.812;8.198;2022-10-30T13:25:10;99928.50;;;29.52
65272;BMP280;51868;48.812;8.198;2022-10-30T13:27:59;99912.75;;;29.59
65272;BMP280;51868;48.812;8.198;2022-10-30T13:30:57;99943.09;;;29.37
65272;BMP280;51868;48.812;8.198;2022-10-30T13:33:38;99918.66;;;29.58
65272;BMP280;51868;48.812;8.198;2022-10-30T13:36:18;100041.19;;;28.78
65272;BMP280;51868;48.812;8.198;2022-10-30T13:38:58;99939.03;;;29.43
65272;BMP280;51868;48.812;8.198;2022-10-30T13:41:34;99782.25;;;30.35
65272;BMP280;51868;48.812;8.198;2022-10-30T13:44:23;99702.56;;;30.87
65272;BMP280;51868;48.812;8.198;2022-10-30T13:54:00;99722.13;;;30.76
65272;BMP280;51868;48.812;8.198;2022-10-30T13:57:07;99794.28;;;30.32
65272;BMP280;51868;48.812;8.198;2022-10-30T14:04:18;100208.41;;;27.74
65272;BMP280;51868;48.812;8.198;2022-10-30T14:06:49;100338.44;;;26.96
65272;BMP280;51868;48.812;8.198;2022-10-30T14:10:19;100422.69;;;26.46
65272;BMP280;51868;48.812;8.198;2022-10-30T14:12:52;100427.31;;;26.37
65272;BMP280;51868;48.812;8.198;2022-10-30T14:18:07;100468.88;;;26.15
65272;BMP280;51868;48.812;8.198;2022-10-30T14:19:24;100518.25;;;25.82
65272;BMP280;51868;48.812;8.198;2022-10-30T14:22:23;100569.84;;;25.52
65272;BMP280;51868;48.812;8.198;2022-10-30T14:24:56;100594.28;;;25.29
65272;BMP280;51868;48.812;8.198;2022-10-30T14:27:41;100623.75;;;25.10
65272;BMP280;51868;48.812;8.198;2022-10-30T14:30:17;100658.78;;;24.91
65272;BMP280;51868;48.812;8.198;2022-10-30T14:32:48;100697.25;;;24.69
65272;BMP280;51868;48.812;8.198;2022-10-30T14:35:34;100736.63;;;24.43
65272;BMP280;51868;48.812;8.198;2022-10-30T14:38:23;100769.38;;;24.21
65272;BMP280;51868;48.812;8.198;2022-10-30T14:58:22;100963.31;;;23.01
65272;BMP280;51868;48.812;8.198;2022-10-30T15:01:22;100983.50;;;22.84
65272;BMP280;51868;48.812;8.198;2022-10-30T15:04:11;101024.22;;;22.65
65272;BMP280;51868;48.812;8.198;2022-10-30T15:07:01;101044.59;;;22.47
65272;BMP280;51868;48.812;8.198;2022-10-30T15:10:26;101072.78;;;22.34
65272;BMP280;51868;48.812;8.198;2022-10-30T15:13:52;101101.53;;;22.17
65272;BMP280;51868;48.812;8.198;2022-10-30T15:16:37;101118.25;;;22.03
65272;BMP280;51868;48.812;8.198;2022-10-30T15:19:11;101140.44;;;21.91
65272;BMP280;51868;48.812;8.198;2022-10-30T15:21:52;101162.72;;;21.78
65272;BMP280;51868;48.812;8.198;2022-10-30T15:24:40;101179.41;;;21.65
65272;BMP280;51868;48.812;8.198;2022-10-30T15:27:25;101198.63;;;21.53
65272;BMP280;51868;48.812;8.198;2022-10-30T15:30:13;101214.56;;;21.44
65272;BMP280;51868;48.812;8.198;2022-10-30T15:32:46;101234.06;;;21.31
65272;BMP280;51868;48.812;8.198;2022-10-30T15:35:30;101247.44;;;21.20
65272;BMP280;51868;48.812;8.198;2022-10-30T15:38:37;101263.13;;;21.12
65272;BMP280;51868;48.812;8.198;2022-10-30T15:41:24;101273.25;;;21.04
65272;BMP280;51868;48.812;8.198;2022-10-30T15:43:57;101286.03;;;20.96
65272;BMP280;51868;48.812;8.198;2022-10-30T15:46:34;101313.19;;;20.87
65272;BMP280;51868;48.812;8.198;2022-10-30T15:49:14;101320.94;;;20.76
65272;BMP280;51868;48.812;8.198;2022-10-30T15:55:58;101380.59;;;20.45
65272;BMP280;51868;48.812;8.198;2022-10-30T15:58:30;101396.75;;;20.34
65272;BMP280;51868;48.812;8.198;2022-10-30T16:12:02;101473.31;;;19.88
65272;BMP280;51868;48.812;8.198;2022-10-30T16:14:51;101477.53;;;19.80
65272;BMP280;51868;48.812;8.198;2022-10-30T16:17:23;101480.66;;;19.79
65272;BMP280;51868;48.812;8.198;2022-10-30T16:20:08;101490.00;;;19.74
65272;BMP280;51868;48.812;8.198;2022-10-30T16:27:03;101534.31;;;19.49
65272;BMP280;51868;48.812;8.198;2022-10-30T16:29:38;101535.59;;;19.41
65272;BMP280;51868;48.812;8.198;2022-10-30T16:32:24;101557.38;;;19.31
65272;BMP280;51868;48.812;8.198;2022-10-30T16:35:27;101570.09;;;19.23
65272;BMP280;51868;48.812;8.198;2022-10-30T16:38:03;101573.75;;;19.18
65272;BMP280;51868;48.812;8.198;2022-10-30T16:40:35;101584.09;;;19.08
65272;BMP280;51868;48.812;8.198;2022-10-30T16:43:03;101608.50;;;18.99
65272;BMP280;51868;48.812;8.198;2022-10-30T16:45:52;101607.19;;;18.90
65272;BMP280;51868;48.812;8.198;2022-10-30T16:48:24;101607.47;;;18.88
65272;BMP280;51868;48.812;8.198;2022-10-30T16:51:03;101613.16;;;18.88
65272;BMP280;51868;48.812;8.198;2022-10-30T16:53:38;101624.78;;;18.87
65272;BMP280;51868;48.812;8.198;2022-10-30T16:56:21;101625.31;;;18.84
65272;BMP280;51868;48.812;8.198;2022-10-30T16:58:55;101616.88;;;18.83
65272;BMP280;51868;48.812;8.198;2022-10-30T17:01:40;101614.31;;;18.82
65272;BMP280;51868;48.812;8.198;2022-10-30T17:04:18;101626.66;;;18.76
65272;BMP280;51868;48.812;8.198;2022-10-30T17:09:51;101648.06;;;18.67
65272;BMP280;51868;48.812;8.198;2022-10-30T17:12:22;101657.38;;;18.63
65272;BMP280;51868;48.812;8.198;2022-10-30T17:15:08;101660.66;;;18.60
65272;BMP280;51868;48.812;8.198;2022-10-30T17:17:41;101684.47;;;18.54
65272;BMP280;51868;48.812;8.198;2022-10-30T17:20:25;101691.03;;;18.49
65272;BMP280;51868;48.812;8.198;2022-10-30T17:23:18;101705.84;;;18.46
65272;BMP280;51868;48.812;8.198;2022-10-30T17:25:56;101711.53;;;18.46
65272;BMP280;51868;48.812;8.198;2022-10-30T17:28:37;101716.75;;;18.48
65272;BMP280;51868;48.812;8.198;2022-10-30T17:31:40;101728.94;;;18.43
65272;BMP280;51868;48.812;8.198;2022-10-30T17:34:18;101750.22;;;18.35
65272;BMP280;51868;48.812;8.198;2022-10-30T17:37:19;101765.66;;;18.28
65272;BMP280;51868;48.812;8.198;2022-10-30T17:40:04;101777.72;;;18.24
65272;BMP280;51868;48.812;8.198;2022-10-30T17:42:36;101795.22;;;18.22
65272;BMP280;51868;48.812;8.198;2022-10-30T17:45:37;101801.50;;;18.18
65272;BMP280;51868;48.812;8.198;2022-10-30T17:48:30;101824.41;;;18.17
65272;BMP280;51868;48.812;8.198;2022-10-30T17:51:02;101831.06;;;18.11
65272;BMP280;51868;48.812;8.198;2022-10-30T17:53:38;101831.16;;;18.11
65272;BMP280;51868;48.812;8.198;2022-10-30T17:56:15;101825.13;;;18.13
65272;BMP280;51868;48.812;8.198;2022-10-30T17:59:00;101824.50;;;18.16
65272;BMP280;51868;48.812;8.198;2022-10-30T18:01:49;101829.91;;;18.18
65272;BMP280;51868;48.812;8.198;2022-10-30T18:04:25;101836.47;;;18.13
65272;BMP280;51868;48.812;8.198;2022-10-30T18:06:53;101866.47;;;18.04
65272;BMP280;51868;48.812;8.198;2022-10-30T18:09:23;101876.38;;;17.96
65272;BMP280;51868;48.812;8.198;2022-10-30T18:11:55;101885.88;;;17.90
65272;BMP280;51868;48.812;8.198;2022-10-30T18:14:41;101895.38;;;17.84
65272;BMP280;51868;48.812;8.198;2022-10-30T18:21:33;101929.91;;;17.65
65272;BMP280;51868;48.812;8.198;2022-10-30T18:24:22;101936.66;;;17.59
65272;BMP280;51868;48.812;8.198;2022-10-30T18:26:54;101957.13;;;17.55
65272;BMP280;51868;48.812;8.198;2022-10-30T18:33:42;101981.59;;;17.45
65272;BMP280;51868;48.812;8.198;2022-10-30T18:40:19;102016.19;;;17.25
65272;BMP280;51868;48.812;8.198;2022-10-30T20:30:32;102310.22;;;15.62
65272;BMP280;51868;48.812;8.198;2022-10-30T20:33:04;102316.38;;;15.59
65272;BMP280;51868;48.812;8.198;2022-10-30T20:35:40;102319.22;;;15.59
65272;BMP280;51868;48.812;8.198;2022-10-30T20:38:21;102322.06;;;15.59
65272;BMP280;51868;48.812;8.198;2022-10-30T20:41:02;102316.56;;;15.58
65272;BMP280;51868;48.812;8.198;2022-10-30T20:43:34;102322.41;;;15.57
65272;BMP280;51868;48.812;8.198;2022-10-30T20:46:08;102333.84;;;15.56
65272;BMP280;51868;48.812;8.198;2022-10-30T20:48:42;102334.34;;;15.53
65272;BMP280;51868;48.812;8.198;2022-10-30T20:51:15;102342.94;;;15.53
65272;BMP280;51868;48.812;8.198;2022-10-30T20:53:47;102354.72;;;15.50
65272;BMP280;51868;48.812;8.198;2022-10-30T20:56:15;102360.97;;;15.47
65272;BMP280;51868;48.812;8.198;2022-10-30T20:58:52;102370.31;;;15.41
65272;BMP280;51868;48.812;8.198;2022-10-30T21:01:21;102379.25;;;15.39
65272;BMP280;51868;48.812;8.198;2022-10-30T21:03:53;102385.34;;;15.36
65272;BMP280;51868;48.812;8.198;2022-10-30T21:06:34;102388.50;;;15.34
65272;BMP280;51868;48.812;8.198;2022-10-30T21:09:10;102394.50;;;15.32
65272;BMP280;51868;48.812;8.198;2022-10-30T21:11:38;102394.75;;;15.31
65272;BMP280;51868;48.812;8.198;2022-10-30T21:14:08;102392.16;;;15.29
65272;BMP280;51868;48.812;8.198;2022-10-30T21:16:39;102395.00;;;15.29
65272;BMP280;51868;48.812;8.198;2022-10-30T21:19:08;102401.09;;;15.27
65272;BMP280;51868;48.812;8.198;2022-10-30T21:21:40;102407.19;;;15.24
65272;BMP280;51868;48.812;8.198;2022-10-30T21:24:10;102413.34;;;15.21
65272;BMP280;51868;48.812;8.198;2022-10-30T21:26:41;102428.06;;;15.18
65272;BMP280;51868;48.812;8.198;2022-10-30T21:29:08;102425.53;;;15.16
65272;BMP280;51868;48.812;8.198;2022-10-30T21:31:41;102434.38;;;15.14
65272;BMP280;51868;48.812;8.198;2022-10-30T21:34:14;102431.88;;;15.12
65272;BMP280;51868;48.812;8.198;2022-10-30T21:36:41;102432.44;;;15.08
65272;BMP280;51868;48.812;8.198;2022-10-30T21:39:11;102432.78;;;15.06
65272;BMP280;51868;48.812;8.198;2022-10-30T21:41:40;102441.53;;;15.05
65272;BMP280;51868;48.812;8.198;2022-10-30T21:44:11;102447.38;;;15.04
65272;BMP280;51868;48.812;8.198;2022-10-30T21:46:43;102450.31;;;15.03
65272;BMP280;51868;48.812;8.198;2022-10-30T21:49:19;102450.31;;;15.03
65272;BMP280;51868;48.812;8.198;2022-10-30T21:51:50;102453.06;;;15.04
65272;BMP280;51868;48.812;8.198;2022-10-30T21:54:22;102453.47;;;15.01
65272;BMP280;51868;48.812;8.198;2022-10-30T21:57:12;102462.63;;;14.97
65272;BMP280;51868;48.812;8.198;2022-10-30T21:59:48;102457.38;;;14.94
65272;BMP280;51868;48.812;8.198;2022-10-30T22:02:34;102463.53;;;14.91
65272;BMP280;51868;48.812;8.198;2022-10-30T22:05:03;102475.53;;;14.87
65272;BMP280;51868;48.812;8.198;2022-10-30T22:07:38;102476.09;;;14.84
65272;BMP280;51868;48.812;8.198;2022-10-30T22:10:11;102473.50;;;14.82
65272;BMP280;51868;48.812;8.198;2022-10-30T22:12:53;102469.63;;;14.89
65272;BMP280;51868;48.812;8.198;2022-10-30T22:15:28;102472.69;;;14.87
65272;BMP280;51868;48.812;8.198;2022-10-30T22:18:02;102476.19;;;14.83
65272;BMP280;51868;48.812;8.198;2022-10-30T22:20:33;102482.34;;;14.80
65272;BMP280;51868;48.812;8.198;2022-10-30T22:23:03;102485.19;;;14.80
65272;BMP280;51868;48.812;8.198;2022-10-30T22:25:33;102482.34;;;14.80
65272;BMP280;51868;48.812;8.198;2022-10-30T22:28:03;102485.84;;;14.76
65272;BMP280;51868;48.812;8.198;2022-10-30T22:30:33;102495.34;;;14.70
65272;BMP280;51868;48.812;8.198;2022-10-30T22:33:04;102495.56;;;14.68
65272;BMP280;51868;48.812;8.198;2022-10-30T22:35:37;102495.56;;;14.68
65272;BMP280;51868;48.812;8.198;2022-10-30T22:38:15;102490.06;;;14.67
65272;BMP280;51868;48.812;8.198;2022-10-30T22:40:52;102496.22;;;14.64
65272;BMP280;51868;48.812;8.198;2022-10-30T22:43:23;102511.56;;;14.57
65272;BMP280;51868;48.812;8.198;2022-10-30T22:45:52;102520.94;;;14.52
65272;BMP280;51868;48.812;8.198;2022-10-30T22:48:27;102524.28;;;14.49
65272;BMP280;51868;48.812;8.198;2022-10-30T22:50:59;102524.69;;;14.46
65272;BMP280;51868;48.812;8.198;2022-10-30T22:53:53;102527.84;;;14.44
65272;BMP280;51868;48.812;8.198;2022-10-30T22:56:27;102530.91;;;14.42
65272;BMP280;51868;48.812;8.198;2022-10-30T22:58:59;102534.00;;;14.41
65272;BMP280;51868;48.812;8.198;2022-10-30T23:01:34;102527.91;;;14.43
65272;BMP280;51868;48.812;8.198;2022-10-30T23:04:08;102528.41;;;14.40
65272;BMP280;51868;48.812;8.198;2022-10-30T23:06:48;102534.41;;;14.38
65272;BMP280;51868;48.812;8.198;2022-10-30T23:09:21;102531.72;;;14.37
65272;BMP280;51868;48.812;8.198;2022-10-30T23:11:50;102537.78;;;14.35
65272;BMP280;51868;48.812;8.198;2022-10-30T23:14:21;102529.44;;;14.34
65272;BMP280;51868;48.812;8.198;2022-10-30T23:16:52;102541.13;;;14.32
65272;BMP280;51868;48.812;8.198;2022-10-30T23:19:22;102532.75;;;14.31
65272;BMP280;51868;48.812;8.198;2022-10-30T23:21:56;102539.16;;;14.26
65272;BMP280;51868;48.812;8.198;2022-10-30T23:24:29;102550.91;;;14.24
65272;BMP280;51868;48.812;8.198;2022-10-30T23:27:09;102557.53;;;14.17
65272;BMP280;51868;48.812;8.198;2022-10-30T23:29:38;102566.88;;;14.12
65272;BMP280;51868;48.812;8.198;2022-10-30T23:32:08;102576.09;;;14.08
65272;BMP280;51868;48.812;8.198;2022-10-30T23:34:42;102585.09;;;14.05
65272;BMP280;51868;48.812;8.198;2022-10-30T23:37:13;102582.88;;;14.01
65272;BMP280;51868;48.812;8.198;2022-10-30T23:39:44;102597.31;;;13.99
65272;BMP280;51868;48.812;8.198;2022-10-30T23:42:13;102594.56;;;13.99
65272;BMP280;51868;48.812;8.198;2022-10-30T23:44:44;102597.72;;;13.96
65272;BMP280;51868;48.812;8.198;2022-10-30T23:47:14;102594.97;;;13.96
65272;BMP280;51868;48.812;8.198;2022-10-30T23:49:49;102592.50;;;13.93
65272;BMP280;51868;48.812;8.198;2022-10-30T23:52:18;102593.31;;;13.88
65272;BMP280;51868;48.812;8.198;2022-10-30T23:54:46;102601.97;;;13.87
65272;BMP280;51868;48.812;8.198;2022-10-30T23:57:15;102610.66;;;13.86
65272;BMP280;51868;48.812;8.198;2022-10-30T23:59:49;102610.91;;;13.85
